createdAt,value
2023-01-19T00:02:09.301Z,36.40
2023-01-19T00:05:04.088Z,36.10
2023-01-19T00:07:56.911Z,32.40
2023-01-19T00:10:52.391Z,31.20
2023-01-19T00:13:50.535Z,31.20
2023-01-19T00:16:43.502Z,34.60
2023-01-19T00:19:36.534Z,45.60
2023-01-19T00:22:29.270Z,39.00
2023-01-19T00:25:22.132Z,36.50
2023-01-19T00:28:17.043Z,40.30
2023-01-19T00:31:10.910Z,35.50
2023-01-19T00:34:03.989Z,41.40
2023-01-19T00:36:57.417Z,46.30
2023-01-19T00:39:50.279Z,46.20
2023-01-19T00:42:45.593Z,48.20
2023-01-19T00:45:38.516Z,44.80
2023-01-19T00:48:24.007Z,50.40
2023-01-19T00:51:16.746Z,45.50
2023-01-19T00:54:10.463Z,44.60
2023-01-19T00:57:03.589Z,40.90
2023-01-19T00:59:50.475Z,41.80
2023-01-19T01:02:45.073Z,48.20
2023-01-19T01:05:41.274Z,50.80
2023-01-19T01:08:33.458Z,44.40
2023-01-19T01:11:26.176Z,44.20
2023-01-19T01:14:19.470Z,43.90
2023-01-19T01:17:04.858Z,40.30
2023-01-19T01:19:58.117Z,41.90
2023-01-19T01:22:53.886Z,34.80
2023-01-19T01:25:46.734Z,36.90
2023-01-19T01:28:39.488Z,35.60
2023-01-19T01:31:32.283Z,37.40
2023-01-19T01:34:25.080Z,42.40
2023-01-19T01:37:18.954Z,36.40
2023-01-19T01:40:14.976Z,41.00
2023-01-19T01:43:08.003Z,36.90
2023-01-19T01:46:00.849Z,37.20
2023-01-19T01:49:01.941Z,37.20
2023-01-19T01:51:56.245Z,36.60
2023-01-19T01:54:42.240Z,38.00
2023-01-19T01:57:15.632Z,35.30
2023-01-19T02:00:10.836Z,35.10
2023-01-19T02:03:03.988Z,36.20
2023-01-19T02:06:01.645Z,33.00
2023-01-19T02:09:16.873Z,32.90
2023-01-19T02:12:27.275Z,35.60
2023-01-19T02:15:21.181Z,32.70
2023-01-19T02:18:09.178Z,33.00
2023-01-19T02:21:12.292Z,33.10
2023-01-19T02:24:06.148Z,30.10
2023-01-19T02:27:09.017Z,31.60
2023-01-19T02:30:03.797Z,32.30
2023-01-19T02:32:57.806Z,30.50
2023-01-19T02:35:53.217Z,29.30
2023-01-19T02:38:49.038Z,29.40
2023-01-19T02:41:47.884Z,27.80
2023-01-19T02:44:42.874Z,30.50
2023-01-19T02:47:43.246Z,35.60
2023-01-19T02:50:53.141Z,36.70
2023-01-19T02:54:14.856Z,37.80
2023-01-19T02:57:24.602Z,42.20
2023-01-19T03:00:36.756Z,39.60
2023-01-19T03:03:39.978Z,36.50
2023-01-19T03:06:44.871Z,34.40
2023-01-19T03:09:44.236Z,32.80
2023-01-19T03:12:45.334Z,33.30
2023-01-19T03:16:00.919Z,36.20
2023-01-19T03:18:56.743Z,37.30
2023-01-19T03:21:52.057Z,41.20
2023-01-19T03:24:47.302Z,42.80
2023-01-19T03:27:43.657Z,42.80
2023-01-19T03:30:40.280Z,36.90
2023-01-19T03:33:33.327Z,39.80
2023-01-19T03:36:33.732Z,38.20
2023-01-19T03:39:29.470Z,35.50
2023-01-19T03:42:22.903Z,31.40
2023-01-19T03:45:16.638Z,27.20
2023-01-19T03:48:10.520Z,29.20
2023-01-19T03:51:07.348Z,24.10
2023-01-19T03:54:01.463Z,19.40
2023-01-19T03:56:54.538Z,20.30
2023-01-19T03:59:45.973Z,23.40
2023-01-19T04:02:38.943Z,24.50
2023-01-19T04:05:31.850Z,24.50
2023-01-19T04:08:24.609Z,20.00
2023-01-19T04:11:17.411Z,17.60
2023-01-19T04:14:10.161Z,19.50
2023-01-19T04:17:03.275Z,15.50
2023-01-19T04:19:56.463Z,13.80
2023-01-19T04:22:49.826Z,14.60
2023-01-19T04:25:33.308Z,14.00
2023-01-19T04:28:26.171Z,13.70
2023-01-19T04:31:13.068Z,14.40
2023-01-19T04:34:06.082Z,26.50
2023-01-19T04:36:52.486Z,16.20
2023-01-19T04:39:45.487Z,15.50
2023-01-19T04:42:38.476Z,11.50
2023-01-19T04:45:31.560Z,12.80
2023-01-19T04:48:24.601Z,14.70
2023-01-19T04:51:16.321Z,16.40
2023-01-19T04:53:57.986Z,26.10
2023-01-19T04:56:51.075Z,24.30
2023-01-19T04:59:44.154Z,16.60
2023-01-19T05:02:28.910Z,13.80
2023-01-19T05:05:22.380Z,13.40
2023-01-19T05:08:15.381Z,14.00
2023-01-19T05:11:08.795Z,15.00
2023-01-19T05:14:01.797Z,15.00
2023-01-19T05:16:54.646Z,15.70
2023-01-19T05:19:47.926Z,14.50
2023-01-19T05:22:35.347Z,14.10
2023-01-19T05:25:21.283Z,13.90
2023-01-19T05:28:16.279Z,13.60
2023-01-19T05:31:09.978Z,13.30
2023-01-19T05:34:04.238Z,15.80
2023-01-19T05:36:37.313Z,13.90
2023-01-19T05:39:30.439Z,14.40
2023-01-19T05:42:24.197Z,13.60
2023-01-19T05:45:17.400Z,13.70
2023-01-19T05:48:11.143Z,14.30
2023-01-19T05:51:06.040Z,15.00
2023-01-19T05:53:58.933Z,14.50
2023-01-19T05:56:51.924Z,14.90
2023-01-19T05:59:38.007Z,12.10
2023-01-19T06:02:31.470Z,12.60
2023-01-19T06:05:17.390Z,14.10
2023-01-19T06:08:10.485Z,13.30
2023-01-19T06:11:03.529Z,12.20
2023-01-19T06:13:57.076Z,13.00
2023-01-19T06:16:50.177Z,14.50
2023-01-19T06:19:43.258Z,13.90
2023-01-19T06:22:36.544Z,18.20
2023-01-19T06:25:28.019Z,16.10
2023-01-19T06:28:13.558Z,15.40
2023-01-19T06:31:07.090Z,18.40
2023-01-19T06:34:00.015Z,14.50
2023-01-19T06:36:53.153Z,15.40
2023-01-19T06:39:46.124Z,18.40
2023-01-19T06:42:39.098Z,22.60
2023-01-19T06:45:32.358Z,23.50
2023-01-19T06:48:24.194Z,15.80
2023-01-19T06:51:17.081Z,18.50
2023-01-19T06:54:05.335Z,19.10
2023-01-19T06:56:58.421Z,20.70
2023-01-19T06:59:52.975Z,21.40
2023-01-19T07:02:47.358Z,20.30
2023-01-19T07:05:40.764Z,16.50
2023-01-19T07:08:34.250Z,16.40
2023-01-19T07:11:32.333Z,19.10
2023-01-19T07:14:23.926Z,128.50
2023-01-19T07:17:17.664Z,32.60
2023-01-19T07:20:14.558Z,39.00
2023-01-19T07:23:07.973Z,36.30
2023-01-19T07:26:02.321Z,46.60
2023-01-19T07:28:55.658Z,28.70
2023-01-19T07:31:49.240Z,27.60
2023-01-19T07:34:42.168Z,27.30
2023-01-19T07:37:27.684Z,23.60
2023-01-19T07:40:19.918Z,31.30
2023-01-19T07:43:12.821Z,28.00
2023-01-19T07:46:07.946Z,24.70
2023-01-19T07:49:00.965Z,27.60
2023-01-19T07:51:56.501Z,25.00
2023-01-19T07:54:51.030Z,26.10
2023-01-19T07:57:43.926Z,21.10
2023-01-19T08:00:29.758Z,18.30
2023-01-19T08:03:07.042Z,21.10
2023-01-19T08:05:40.578Z,18.90
2023-01-19T08:08:13.523Z,16.90
2023-01-19T08:10:46.339Z,14.20
2023-01-19T08:13:32.366Z,12.80
2023-01-19T08:16:16.093Z,15.30
2023-01-19T08:18:49.181Z,14.00
2023-01-19T08:21:41.984Z,10.80
2023-01-19T08:24:35.392Z,11.90
2023-01-19T08:27:20.664Z,10.30
2023-01-19T08:30:14.871Z,8.60
2023-01-19T08:33:08.352Z,10.50
2023-01-19T08:35:54.189Z,11.80
2023-01-19T08:38:47.522Z,10.90
2023-01-19T08:41:40.418Z,10.50
2023-01-19T08:44:33.590Z,11.30
2023-01-19T08:47:25.585Z,12.40
2023-01-19T08:50:19.545Z,12.30
2023-01-19T08:53:13.337Z,16.10
2023-01-19T08:56:12.385Z,14.80
2023-01-19T08:59:09.858Z,14.20
2023-01-19T09:01:56.871Z,15.40
2023-01-19T09:04:30.124Z,20.10
2023-01-19T09:07:23.042Z,12.50
2023-01-19T09:10:16.453Z,12.20
2023-01-19T09:13:13.089Z,13.40
2023-01-19T09:16:08.154Z,11.00
2023-01-19T09:19:01.178Z,11.60
2023-01-19T09:21:34.656Z,12.40
2023-01-19T09:24:28.817Z,12.10
2023-01-19T09:27:21.899Z,11.80
2023-01-19T09:29:57.429Z,12.50
2023-01-19T09:32:50.590Z,11.90
2023-01-19T09:35:45.545Z,13.00
2023-01-19T09:38:38.567Z,10.40
2023-01-19T09:44:21.604Z,11.60
2023-01-19T09:47:24.895Z,10.40
2023-01-19T09:50:22.833Z,10.60
2023-01-19T09:53:22.285Z,11.10
2023-01-19T09:56:17.083Z,11.10
2023-01-19T09:59:22.018Z,10.00
2023-01-19T10:02:23.609Z,8.70
2023-01-19T10:05:28.289Z,9.40
2023-01-19T10:08:32.050Z,8.80
2023-01-19T10:11:51.832Z,8.50
2023-01-19T10:14:53.762Z,7.80
2023-01-19T10:17:49.315Z,8.40
2023-01-19T10:20:46.244Z,8.50
2023-01-19T10:23:46.926Z,9.00
2023-01-19T10:26:44.801Z,8.50
2023-01-19T10:29:42.692Z,8.80
2023-01-19T10:32:37.893Z,9.10
2023-01-19T10:35:32.714Z,8.50
2023-01-19T10:38:27.890Z,9.80
2023-01-19T10:41:27.581Z,9.20
2023-01-19T10:44:27.349Z,10.00
2023-01-19T10:47:18.242Z,10.50
2023-01-19T10:50:26.392Z,10.20
2023-01-19T10:56:23.193Z,10.50
2023-01-19T10:59:31.961Z,10.20
2023-01-19T11:02:27.860Z,9.40
2023-01-19T11:05:29.398Z,10.00
2023-01-19T11:08:25.445Z,11.30
2023-01-19T11:11:18.965Z,12.10
2023-01-19T11:14:15.741Z,11.50
2023-01-19T11:17:18.962Z,17.50
2023-01-19T11:20:04.157Z,19.60
2023-01-19T11:23:18.084Z,20.20
2023-01-19T11:26:16.491Z,13.90
2023-01-19T11:29:17.336Z,12.80
2023-01-19T11:32:25.211Z,15.80
2023-01-19T11:35:38.504Z,16.00
2023-01-19T11:38:32.958Z,14.80
2023-01-19T11:41:22.680Z,13.30
2023-01-19T11:46:39.772Z,12.70
2023-01-19T11:49:28.856Z,12.30
2023-01-19T11:52:27.502Z,13.10
2023-01-19T11:55:22.711Z,13.70
2023-01-19T11:58:08.901Z,13.30
2023-01-19T12:01:08.526Z,12.50
2023-01-19T12:04:06.571Z,13.10
2023-01-19T12:06:57.005Z,12.50
2023-01-19T12:09:46.684Z,13.50
2023-01-19T12:12:33.693Z,12.80
2023-01-19T12:15:33.421Z,12.60
2023-01-19T12:18:25.473Z,12.70
2023-01-19T12:21:11.379Z,15.20
2023-01-19T12:24:01.448Z,12.80
2023-01-19T12:26:57.641Z,9.60
2023-01-19T12:29:36.720Z,14.00
2023-01-19T12:32:34.511Z,13.00
2023-01-19T12:38:41.910Z,12.40
2023-01-19T12:41:35.534Z,13.50
2023-01-19T12:44:34.333Z,12.30
2023-01-19T12:47:27.313Z,13.50
2023-01-19T12:50:09.273Z,12.70
2023-01-19T12:53:08.371Z,14.00
2023-01-19T12:56:06.227Z,13.90
2023-01-19T12:58:55.114Z,14.10
2023-01-19T13:01:28.061Z,14.10
2023-01-19T13:04:35.177Z,13.80
2023-01-19T13:07:18.040Z,13.00
2023-01-19T13:10:01.842Z,12.50
2023-01-19T13:12:35.587Z,12.30
2023-01-19T13:15:35.520Z,12.70
2023-01-19T13:18:14.129Z,12.10
2023-01-19T13:23:28.397Z,12.50
2023-01-19T13:26:07.771Z,12.00
2023-01-19T13:28:44.890Z,12.00
2023-01-19T13:31:21.326Z,13.50
2023-01-19T13:33:58.389Z,34.70
2023-01-19T13:36:47.609Z,25.50
2023-01-19T13:39:36.960Z,28.50
2023-01-19T13:42:35.401Z,31.50
2023-01-19T13:45:31.198Z,27.90
2023-01-19T13:48:26.132Z,30.70
2023-01-19T13:51:04.109Z,29.50
2023-01-19T13:53:58.552Z,29.20
2023-01-19T13:56:42.782Z,29.10
2023-01-19T13:59:28.011Z,29.70
2023-01-19T14:02:16.430Z,29.20
2023-01-19T14:04:52.167Z,30.10
2023-01-19T14:07:29.025Z,39.60
2023-01-19T14:10:08.295Z,35.30
2023-01-19T14:13:04.133Z,38.20
2023-01-19T14:15:50.716Z,35.90
2023-01-19T14:18:31.363Z,34.80
2023-01-19T14:21:18.707Z,28.60
2023-01-19T14:24:17.847Z,27.80
2023-01-19T14:29:45.703Z,32.70
2023-01-19T14:32:48.823Z,29.30
2023-01-19T14:35:41.673Z,28.40
2023-01-19T14:38:23.709Z,24.70
2023-01-19T14:41:28.400Z,27.40
2023-01-19T14:44:26.380Z,29.00
2023-01-19T14:47:34.646Z,28.80
2023-01-19T14:50:29.154Z,29.80
2023-01-19T14:53:21.317Z,27.30
2023-01-19T14:56:08.657Z,28.80
2023-01-19T14:58:56.363Z,29.40
2023-01-19T15:01:40.113Z,28.70
2023-01-19T15:04:23.255Z,25.80
2023-01-19T15:06:58.004Z,28.50
2023-01-19T15:09:34.075Z,31.90
2023-01-19T15:12:19.068Z,33.80
2023-01-19T15:15:02.601Z,32.90
2023-01-19T15:17:48.068Z,35.90
2023-01-19T15:20:32.592Z,44.80
2023-01-19T15:23:25.347Z,52.10
2023-01-19T15:26:11.538Z,59.40
2023-01-19T15:28:50.164Z,68.40
2023-01-19T15:31:42.976Z,69.70
2023-01-19T15:34:36.648Z,48.60
2023-01-19T15:37:29.397Z,36.10
2023-01-19T15:40:15.208Z,26.50
2023-01-19T15:43:08.277Z,23.30
2023-01-19T15:46:03.890Z,24.50
2023-01-19T15:48:48.472Z,26.70
2023-01-19T15:51:39.912Z,27.60
2023-01-19T15:54:17.793Z,25.20
2023-01-19T15:57:11.775Z,29.20
2023-01-19T16:00:05.231Z,37.90
2023-01-19T16:02:42.503Z,31.10
2023-01-19T16:05:43.025Z,29.10
2023-01-19T16:08:16.276Z,27.90
2023-01-19T16:11:12.487Z,27.70
2023-01-19T16:14:04.686Z,32.80
2023-01-19T16:17:00.879Z,31.80
2023-01-19T16:19:53.711Z,28.60
2023-01-19T16:22:45.421Z,33.30
2023-01-19T16:25:38.180Z,25.50
2023-01-19T16:28:31.551Z,22.40
2023-01-19T16:31:24.543Z,29.30
2023-01-19T16:34:18.315Z,30.10
2023-01-19T16:37:21.126Z,28.00
2023-01-19T16:40:15.353Z,25.90
2023-01-19T16:43:01.228Z,25.00
2023-01-19T16:46:00.307Z,26.00
2023-01-19T16:48:53.399Z,36.00
2023-01-19T16:51:46.876Z,34.80
2023-01-19T16:54:43.074Z,34.00
2023-01-19T16:57:36.187Z,35.30
2023-01-19T17:00:30.345Z,32.30
2023-01-19T17:03:23.673Z,28.50
2023-01-19T17:06:20.430Z,26.30
2023-01-19T17:09:13.507Z,25.90
2023-01-19T17:12:09.384Z,26.80
2023-01-19T17:14:54.732Z,26.10
2023-01-19T17:17:41.219Z,36.30
2023-01-19T17:20:35.574Z,32.60
2023-01-19T17:23:30.293Z,29.60
2023-01-19T17:26:03.373Z,26.80
2023-01-19T17:29:02.098Z,28.20
2023-01-19T17:31:46.025Z,25.70
2023-01-19T17:34:39.229Z,23.30
2023-01-19T17:37:25.890Z,23.60
2023-01-19T17:40:14.006Z,26.20
2023-01-19T17:42:57.043Z,24.40
2023-01-19T17:45:47.402Z,25.50
2023-01-19T17:48:42.578Z,25.00
2023-01-19T17:51:28.658Z,26.20
2023-01-19T17:54:15.500Z,32.60
2023-01-19T17:57:01.227Z,24.70
2023-01-19T17:59:46.996Z,26.30
2023-01-19T18:02:40.352Z,27.40
2023-01-19T18:05:26.163Z,29.20
2023-01-19T18:08:19.392Z,35.20
2023-01-19T18:11:12.523Z,33.40
2023-01-19T18:14:06.769Z,31.30
2023-01-19T18:16:50.607Z,35.80
2023-01-19T18:19:44.657Z,38.10
2023-01-19T18:22:36.444Z,42.40
2023-01-19T18:25:12.427Z,39.90
2023-01-19T18:27:59.279Z,42.80
2023-01-19T18:30:45.391Z,44.40
2023-01-19T18:33:28.976Z,43.90
2023-01-19T18:36:21.854Z,44.40
2023-01-19T18:39:15.235Z,42.40
2023-01-19T18:42:08.222Z,47.50
2023-01-19T18:45:01.314Z,49.10
2023-01-19T18:47:53.035Z,47.60
2023-01-19T18:50:45.783Z,44.30
2023-01-19T18:53:38.901Z,47.10
2023-01-19T18:56:32.972Z,45.70
2023-01-19T18:59:25.904Z,44.40
2023-01-19T19:02:18.850Z,44.10
2023-01-19T19:05:04.606Z,46.50
2023-01-19T19:07:57.410Z,52.50
2023-01-19T19:10:37.895Z,50.70
2023-01-19T19:13:31.000Z,47.30
2023-01-19T19:16:24.071Z,49.40
2023-01-19T19:19:02.852Z,48.60
2023-01-19T19:21:49.064Z,55.40
2023-01-19T19:24:21.841Z,52.50
2023-01-19T19:27:17.322Z,50.70
2023-01-19T19:30:12.645Z,53.10
2023-01-19T19:33:06.104Z,46.50
2023-01-19T19:35:59.192Z,48.70
2023-01-19T19:38:49.268Z,42.80
2023-01-19T19:41:57.554Z,43.70
2023-01-19T19:44:40.967Z,42.80
2023-01-19T19:47:34.005Z,41.50
2023-01-19T19:50:26.805Z,37.30
2023-01-19T19:53:13.419Z,38.70
2023-01-19T19:56:08.445Z,37.30
2023-01-19T19:59:02.003Z,39.30
2023-01-19T20:01:49.883Z,49.80
2023-01-19T20:04:43.136Z,40.00
2023-01-19T20:07:36.231Z,42.70
2023-01-19T20:10:30.166Z,47.60
2023-01-19T20:13:22.894Z,51.00
2023-01-19T20:16:17.401Z,41.70
2023-01-19T20:19:57.739Z,45.80
2023-01-19T20:22:24.181Z,39.90
2023-01-19T20:25:09.413Z,39.90
2023-01-19T20:28:02.180Z,39.30
2023-01-19T20:30:47.883Z,38.30
2023-01-19T20:33:41.973Z,41.30
2023-01-19T20:36:37.857Z,38.00
2023-01-19T20:39:33.395Z,37.90
2023-01-19T20:42:26.271Z,39.20
2023-01-19T20:45:20.848Z,37.90
2023-01-19T20:48:04.704Z,37.70
2023-01-19T20:51:02.669Z,36.70
2023-01-19T20:53:48.054Z,36.80
2023-01-19T20:56:41.280Z,38.40
2023-01-19T20:59:36.962Z,40.50
2023-01-19T21:02:16.865Z,37.30
2023-01-19T21:04:54.849Z,36.80
2023-01-19T21:07:29.947Z,35.60
2023-01-19T21:10:15.962Z,33.70
2023-01-19T21:13:08.707Z,37.00
2023-01-19T21:16:01.458Z,36.80
2023-01-19T21:18:54.696Z,39.40
2023-01-19T21:21:48.013Z,40.80
2023-01-19T21:24:42.169Z,40.20
2023-01-19T21:27:36.743Z,42.40
2023-01-19T21:30:29.672Z,40.40
2023-01-19T21:33:23.169Z,41.50
2023-01-19T21:36:15.933Z,40.20
2023-01-19T21:39:09.252Z,39.70
2023-01-19T21:42:02.711Z,40.30
2023-01-19T21:44:49.884Z,38.80
2023-01-19T21:47:42.699Z,39.70
2023-01-19T21:50:28.498Z,37.40
2023-01-19T21:53:21.244Z,36.30
2023-01-19T21:56:16.880Z,41.60
2023-01-19T21:59:03.629Z,40.70
2023-01-19T22:01:57.513Z,38.30
2023-01-19T22:04:50.491Z,37.90
2023-01-19T22:07:43.429Z,35.70
2023-01-19T22:10:38.559Z,35.30
2023-01-19T22:13:31.786Z,36.30
2023-01-19T22:16:25.513Z,37.70
2023-01-19T22:19:14.552Z,39.30
2023-01-19T22:22:07.332Z,40.50
2023-01-19T22:24:58.519Z,41.10
2023-01-19T22:27:52.395Z,37.30
2023-01-19T22:30:45.617Z,31.40
2023-01-19T22:33:38.730Z,33.80
2023-01-19T22:36:34.092Z,35.80
2023-01-19T22:39:28.398Z,33.70
2023-01-19T22:42:19.938Z,41.30
2023-01-19T22:45:15.390Z,41.80
2023-01-19T22:47:59.410Z,41.10
2023-01-19T22:50:58.638Z,45.60
2023-01-19T22:53:51.680Z,46.70
2023-01-19T22:56:45.866Z,42.70
2023-01-19T22:59:37.677Z,45.00
2023-01-19T23:02:24.517Z,43.90
2023-01-19T23:05:17.587Z,45.00
2023-01-19T23:08:12.835Z,45.60
2023-01-19T23:11:11.087Z,45.30
2023-01-19T23:14:04.521Z,44.80
2023-01-19T23:16:57.294Z,47.30
2023-01-19T23:19:50.408Z,45.30
2023-01-19T23:22:43.155Z,43.00
2023-01-19T23:25:37.208Z,46.40
2023-01-19T23:28:34.227Z,45.50
2023-01-19T23:31:29.704Z,42.90
2023-01-19T23:34:22.545Z,43.70
2023-01-19T23:37:15.389Z,42.30
2023-01-19T23:40:10.195Z,45.70
2023-01-19T23:43:03.154Z,48.60
2023-01-19T23:45:55.991Z,48.30
2023-01-19T23:48:49.323Z,48.10
2023-01-19T23:51:43.149Z,48.40
2023-01-19T23:54:36.455Z,47.80
2023-01-19T23:57:31.436Z,45.10
